createdAt,value
2019-02-16T00:00:48.423Z,3.90
2019-02-16T00:01:25.890Z,3.90
2019-02-16T00:02:03.903Z,3.90
2019-02-16T00:02:41.903Z,4.00
2019-02-16T00:03:20.064Z,4.00
2019-02-16T00:03:57.133Z,3.90
2019-02-16T00:04:34.509Z,4.00
2019-02-16T00:05:12.124Z,3.90
2019-02-16T00:05:49.463Z,3.90
2019-02-16T00:06:27.389Z,3.90
2019-02-16T00:07:04.970Z,3.90
2019-02-16T00:07:42.733Z,3.90
2019-02-16T00:08:20.103Z,3.90
2019-02-16T00:08:57.789Z,3.90
2019-02-16T00:09:35.368Z,3.90
2019-02-16T00:10:12.762Z,3.90
2019-02-16T00:10:50.446Z,3.90
2019-02-16T00:11:28.214Z,3.90
2019-02-16T00:12:05.954Z,3.90
2019-02-16T00:12:45.318Z,3.90
2019-02-16T00:13:22.424Z,3.90
2019-02-16T00:14:00.076Z,3.90
2019-02-16T00:14:37.967Z,3.90
2019-02-16T00:15:15.748Z,3.90
2019-02-16T00:15:52.840Z,3.90
2019-02-16T00:16:30.394Z,3.90
2019-02-16T00:17:07.640Z,3.80
2019-02-16T00:17:47.163Z,3.80
2019-02-16T00:18:24.576Z,3.90
2019-02-16T00:19:01.638Z,3.90
2019-02-16T00:19:39.424Z,3.90
2019-02-16T00:20:16.810Z,3.90
2019-02-16T00:21:03.404Z,3.90
2019-02-16T00:21:34.479Z,3.80
2019-02-16T00:22:11.902Z,3.80
2019-02-16T00:22:49.927Z,3.80
2019-02-16T00:23:31.568Z,3.80
2019-02-16T00:24:09.086Z,3.80
2019-02-16T00:24:46.728Z,3.80
2019-02-16T00:25:24.720Z,3.80
2019-02-16T00:26:02.330Z,3.80
2019-02-16T00:26:39.608Z,3.80
2019-02-16T00:27:17.183Z,3.80
2019-02-16T00:27:54.150Z,3.80
2019-02-16T00:28:32.032Z,3.80
2019-02-16T00:29:09.773Z,3.80
2019-02-16T00:29:47.072Z,3.80
2019-02-16T00:30:24.964Z,3.80
2019-02-16T00:31:04.468Z,3.70
2019-02-16T00:31:42.172Z,3.80
2019-02-16T00:32:19.653Z,3.70
2019-02-16T00:32:57.613Z,3.70
2019-02-16T00:33:34.913Z,3.70
2019-02-16T00:34:12.858Z,3.70
2019-02-16T00:34:50.289Z,3.70
2019-02-16T00:35:28.062Z,3.70
2019-02-16T00:36:06.297Z,3.70
2019-02-16T00:36:44.212Z,3.70
2019-02-16T00:37:21.564Z,3.70
2019-02-16T00:37:59.216Z,3.70
2019-02-16T00:38:37.302Z,3.70
2019-02-16T00:39:15.288Z,3.70
2019-02-16T00:39:53.073Z,3.70
2019-02-16T00:40:30.987Z,3.70
2019-02-16T00:41:08.747Z,3.70
2019-02-16T00:41:46.432Z,3.70
2019-02-16T00:42:24.352Z,3.70
2019-02-16T00:43:01.993Z,3.70
2019-02-16T00:43:40.042Z,3.70
2019-02-16T00:44:17.782Z,3.70
2019-02-16T00:44:55.490Z,3.70
2019-02-16T00:45:33.232Z,3.70
2019-02-16T00:46:10.628Z,3.70
2019-02-16T00:46:48.245Z,3.70
2019-02-16T00:47:25.609Z,3.70
2019-02-16T00:48:03.308Z,3.70
2019-02-16T00:48:40.952Z,3.70
2019-02-16T00:49:18.233Z,3.70
2019-02-16T00:49:55.807Z,3.70
2019-02-16T00:50:33.413Z,3.70
2019-02-16T00:51:13.605Z,3.70
2019-02-16T00:51:50.764Z,3.70
2019-02-16T00:52:28.414Z,3.70
2019-02-16T00:53:06.072Z,3.70
2019-02-16T00:53:43.756Z,3.70
2019-02-16T00:54:21.048Z,3.70
2019-02-16T00:54:59.026Z,3.60
2019-02-16T00:55:35.982Z,3.60
2019-02-16T00:56:13.847Z,3.60
2019-02-16T00:56:51.359Z,3.60
2019-02-16T00:57:29.272Z,3.60
2019-02-16T00:58:07.154Z,3.60
2019-02-16T00:58:44.266Z,3.60
2019-02-16T00:59:21.672Z,3.60
2019-02-16T00:59:59.580Z,3.60
2019-02-16T01:00:37.452Z,3.60
2019-02-16T01:01:14.973Z,3.60
2019-02-16T01:01:53.024Z,3.60
2019-02-16T01:02:30.640Z,3.60
2019-02-16T01:03:07.776Z,3.60
2019-02-16T01:03:45.384Z,3.60
2019-02-16T01:04:23.048Z,3.60
2019-02-16T01:05:00.752Z,3.60
2019-02-16T01:05:38.405Z,3.60
2019-02-16T01:06:16.228Z,3.60
2019-02-16T01:06:53.936Z,3.60
2019-02-16T01:07:30.982Z,3.60
2019-02-16T01:08:08.042Z,3.60
2019-02-16T01:08:45.592Z,3.60
2019-02-16T01:09:24.421Z,3.60
2019-02-16T01:10:02.247Z,3.60
2019-02-16T01:10:40.036Z,3.60
2019-02-16T01:11:18.206Z,3.70
2019-02-16T01:11:56.476Z,3.70
2019-02-16T01:12:33.978Z,3.70
2019-02-16T01:13:12.173Z,3.70
2019-02-16T01:13:50.322Z,3.70
2019-02-16T01:14:28.478Z,3.70
2019-02-16T01:15:11.148Z,3.70
2019-02-16T01:15:49.960Z,3.70
2019-02-16T01:16:28.066Z,3.70
2019-02-16T01:17:06.267Z,3.70
2019-02-16T01:17:43.734Z,3.70
2019-02-16T01:18:21.532Z,3.60
2019-02-16T01:18:59.354Z,3.60
2019-02-16T01:19:36.682Z,3.60
2019-02-16T01:20:17.346Z,3.60
2019-02-16T01:20:55.490Z,3.60
2019-02-16T01:21:32.938Z,3.60
2019-02-16T01:22:12.856Z,3.60
2019-02-16T01:22:50.974Z,3.60
2019-02-16T01:23:29.377Z,3.60
2019-02-16T01:24:07.016Z,3.60
2019-02-16T01:24:44.374Z,3.50
2019-02-16T01:25:22.167Z,3.50
2019-02-16T01:25:59.154Z,3.60
2019-02-16T01:26:37.168Z,3.50
2019-02-16T01:27:14.696Z,3.50
2019-02-16T01:27:52.791Z,3.50
2019-02-16T01:28:30.924Z,3.50
2019-02-16T01:29:08.912Z,3.50
2019-02-16T01:29:46.593Z,3.50
2019-02-16T01:30:24.525Z,3.50
2019-02-16T01:31:01.864Z,3.50
2019-02-16T01:31:39.976Z,3.50
2019-02-16T01:32:17.617Z,3.50
2019-02-16T01:32:55.662Z,3.50
2019-02-16T01:33:33.481Z,3.50
2019-02-16T01:34:11.440Z,3.50
2019-02-16T01:34:49.101Z,3.50
2019-02-16T01:35:27.005Z,3.50
2019-02-16T01:36:04.670Z,3.50
2019-02-16T01:36:41.974Z,3.50
2019-02-16T01:37:21.724Z,3.50
2019-02-16T01:38:00.702Z,3.50
2019-02-16T01:38:38.356Z,3.50
2019-02-16T01:39:16.352Z,3.50
2019-02-16T01:39:54.017Z,3.50
2019-02-16T01:40:31.990Z,3.50
2019-02-16T01:41:10.013Z,3.50
2019-02-16T01:41:47.901Z,3.50
2019-02-16T01:42:25.984Z,3.50
2019-02-16T01:43:03.676Z,3.50
2019-02-16T01:43:41.350Z,3.50
2019-02-16T01:44:19.136Z,3.50
2019-02-16T01:44:56.835Z,3.50
2019-02-16T01:45:34.512Z,3.60
2019-02-16T01:46:12.248Z,3.60
2019-02-16T01:46:49.778Z,3.60
2019-02-16T01:47:27.365Z,3.60
2019-02-16T01:48:04.755Z,3.60
2019-02-16T01:48:42.484Z,3.60
2019-02-16T01:49:19.479Z,3.60
2019-02-16T01:49:57.058Z,3.60
2019-02-16T01:50:34.532Z,3.60
2019-02-16T01:51:11.818Z,3.60
2019-02-16T01:51:49.540Z,3.60
2019-02-16T01:52:26.849Z,3.60
2019-02-16T01:53:03.990Z,3.60
2019-02-16T01:53:41.632Z,3.60
2019-02-16T01:54:19.600Z,3.60
2019-02-16T01:54:57.376Z,3.60
2019-02-16T01:55:35.064Z,3.60
2019-02-16T01:56:13.084Z,3.60
2019-02-16T01:56:50.752Z,3.60
2019-02-16T01:57:28.459Z,3.60
2019-02-16T01:58:05.792Z,3.60
2019-02-16T01:58:43.122Z,3.60
2019-02-16T01:59:20.138Z,3.60
2019-02-16T01:59:57.100Z,3.60
2019-02-16T02:00:35.302Z,3.60
2019-02-16T02:01:12.298Z,3.60
2019-02-16T02:01:50.292Z,3.60
2019-02-16T02:02:27.632Z,3.60
2019-02-16T02:03:05.443Z,3.60
2019-02-16T02:03:43.436Z,3.60
2019-02-16T02:04:21.196Z,3.60
2019-02-16T02:04:57.922Z,3.60
2019-02-16T02:05:35.044Z,3.60
2019-02-16T02:06:12.420Z,3.60
2019-02-16T02:06:49.880Z,3.60
2019-02-16T02:07:27.668Z,3.60
2019-02-16T02:08:05.448Z,3.60
2019-02-16T02:08:43.256Z,3.60
2019-02-16T02:09:21.244Z,3.60
2019-02-16T02:09:58.658Z,3.60
2019-02-16T02:10:36.408Z,3.60
2019-02-16T02:11:13.868Z,3.60
2019-02-16T02:11:53.524Z,3.60
2019-02-16T02:12:30.842Z,3.60
2019-02-16T02:13:08.787Z,3.60
2019-02-16T02:13:46.449Z,3.50
2019-02-16T02:14:24.152Z,3.50
2019-02-16T02:15:01.892Z,3.50
2019-02-16T02:15:38.984Z,3.60
2019-02-16T02:16:16.464Z,3.50
2019-02-16T02:16:53.840Z,3.50
2019-02-16T02:17:30.840Z,3.50
2019-02-16T02:18:08.616Z,3.60
2019-02-16T02:18:45.990Z,3.50
2019-02-16T02:19:23.675Z,3.50
2019-02-16T02:20:01.438Z,3.60
2019-02-16T02:20:38.766Z,3.60
2019-02-16T02:21:15.780Z,3.60
2019-02-16T02:21:53.058Z,3.60
2019-02-16T02:22:30.774Z,3.60
2019-02-16T02:23:08.216Z,3.60
2019-02-16T02:23:45.216Z,3.60
2019-02-16T02:24:22.914Z,3.60
2019-02-16T02:25:00.568Z,3.60
2019-02-16T02:25:38.440Z,3.60
2019-02-16T02:26:16.117Z,3.60
2019-02-16T02:26:53.257Z,3.60
2019-02-16T02:27:30.820Z,3.60
2019-02-16T02:28:08.175Z,3.60
2019-02-16T02:28:46.037Z,3.60
2019-02-16T02:29:24.044Z,3.60
2019-02-16T02:30:01.420Z,3.50
2019-02-16T02:30:39.166Z,3.50
2019-02-16T02:31:16.986Z,3.50
2019-02-16T02:31:54.637Z,3.50
2019-02-16T02:32:31.387Z,3.50
2019-02-16T02:33:09.022Z,3.50
2019-02-16T02:33:46.621Z,3.50
2019-02-16T02:34:24.518Z,3.40
2019-02-16T02:35:01.901Z,3.40
2019-02-16T02:35:39.278Z,3.40
2019-02-16T02:36:16.897Z,3.40
2019-02-16T02:36:54.710Z,3.40
2019-02-16T02:37:32.631Z,3.40
2019-02-16T02:38:10.584Z,3.40
2019-02-16T02:38:49.007Z,3.40
2019-02-16T02:39:26.467Z,3.40
2019-02-16T02:40:04.461Z,3.40
2019-02-16T02:40:42.227Z,3.40
2019-02-16T02:41:19.554Z,3.40
2019-02-16T02:41:57.504Z,3.40
2019-02-16T02:42:35.324Z,3.40
2019-02-16T02:43:12.856Z,3.40
2019-02-16T02:43:50.760Z,3.40
2019-02-16T02:44:30.300Z,3.40
2019-02-16T02:45:09.714Z,3.40
2019-02-16T02:45:47.727Z,3.40
2019-02-16T02:46:25.364Z,3.40
2019-02-16T02:47:02.974Z,3.40
2019-02-16T02:47:40.899Z,3.40
2019-02-16T02:48:18.591Z,3.40
2019-02-16T02:48:56.481Z,3.40
2019-02-16T02:49:34.135Z,3.30
2019-02-16T02:50:12.204Z,3.30
2019-02-16T02:50:49.923Z,3.30
2019-02-16T02:51:27.581Z,3.30
2019-02-16T02:52:04.983Z,3.30
2019-02-16T02:52:42.056Z,3.40
2019-02-16T02:53:19.498Z,3.30
2019-02-16T02:53:57.157Z,3.40
2019-02-16T02:54:34.259Z,3.30
2019-02-16T02:55:11.734Z,3.30
2019-02-16T02:55:49.328Z,3.30
2019-02-16T02:56:27.091Z,3.30
2019-02-16T02:57:04.811Z,3.30
2019-02-16T02:57:42.466Z,3.30
2019-02-16T02:58:19.842Z,3.30
2019-02-16T02:58:57.208Z,3.30
2019-02-16T02:59:34.934Z,3.30
2019-02-16T03:00:13.100Z,3.30
2019-02-16T03:00:50.580Z,3.30
2019-02-16T03:01:28.675Z,3.20
2019-02-16T03:02:06.798Z,3.20
2019-02-16T03:02:44.720Z,3.20
2019-02-16T03:03:22.748Z,3.20
2019-02-16T03:03:59.836Z,3.20
2019-02-16T03:04:37.286Z,3.20
2019-02-16T03:05:14.760Z,3.20
2019-02-16T03:05:54.815Z,3.20
2019-02-16T03:06:32.826Z,3.20
2019-02-16T03:07:10.794Z,3.20
2019-02-16T03:07:48.370Z,3.10
2019-02-16T03:08:26.059Z,3.20
2019-02-16T03:09:04.857Z,3.20
2019-02-16T03:09:42.334Z,3.20
2019-02-16T03:10:20.062Z,3.20
2019-02-16T03:10:57.496Z,3.20
2019-02-16T03:11:35.540Z,3.20
2019-02-16T03:12:13.187Z,3.20
2019-02-16T03:12:52.198Z,3.20
2019-02-16T03:13:29.560Z,3.20
2019-02-16T03:14:06.853Z,3.20
2019-02-16T03:14:44.861Z,3.20
2019-02-16T03:15:22.816Z,3.20
2019-02-16T03:16:00.733Z,3.20
2019-02-16T03:16:38.692Z,3.20
2019-02-16T03:17:16.738Z,3.20
2019-02-16T03:17:54.418Z,3.20
2019-02-16T03:18:32.332Z,3.20
2019-02-16T03:19:09.634Z,3.30
2019-02-16T03:19:47.369Z,3.30
2019-02-16T03:20:25.324Z,3.30
2019-02-16T03:21:03.195Z,3.30
2019-02-16T03:21:40.877Z,3.30
2019-02-16T03:22:18.853Z,3.30
2019-02-16T03:23:17.806Z,3.30
2019-02-16T03:23:55.466Z,3.30
2019-02-16T03:24:32.859Z,3.30
2019-02-16T03:25:10.549Z,3.30
2019-02-16T03:26:14.937Z,3.30
2019-02-16T03:27:22.385Z,3.30
2019-02-16T03:28:20.756Z,3.30
2019-02-16T03:29:02.389Z,3.20
2019-02-16T03:30:13.200Z,3.20
2019-02-16T03:31:10.698Z,3.20
2019-02-16T03:32:36.254Z,3.20
2019-02-16T03:33:29.813Z,3.20
2019-02-16T03:34:15.507Z,3.20
2019-02-16T03:35:49.265Z,3.20
2019-02-16T03:37:26.861Z,3.20
2019-02-16T03:38:33.370Z,3.20
2019-02-16T03:39:19.289Z,3.20
2019-02-16T03:39:56.605Z,3.20
2019-02-16T03:40:34.028Z,3.20
2019-02-16T03:41:11.358Z,3.20
2019-02-16T03:41:49.347Z,3.20
2019-02-16T03:42:27.030Z,3.20
2019-02-16T03:43:04.115Z,3.20
2019-02-16T03:43:41.437Z,3.20
2019-02-16T03:44:19.125Z,3.30
2019-02-16T03:44:56.817Z,3.30
2019-02-16T03:45:34.380Z,3.30
2019-02-16T03:46:11.458Z,3.30
2019-02-16T03:46:49.152Z,3.30
2019-02-16T03:47:26.619Z,3.30
2019-02-16T03:48:04.376Z,3.30
2019-02-16T03:48:41.881Z,3.40
2019-02-16T03:49:19.645Z,3.40
2019-02-16T03:49:56.959Z,3.40
2019-02-16T03:50:34.741Z,3.40
2019-02-16T03:51:12.319Z,3.40
2019-02-16T03:51:50.257Z,3.40
2019-02-16T03:52:27.581Z,3.40
2019-02-16T03:53:07.612Z,3.40
2019-02-16T03:53:45.479Z,3.40
2019-02-16T03:54:23.286Z,3.40
2019-02-16T03:55:00.872Z,3.40
2019-02-16T03:55:38.660Z,3.40
2019-02-16T03:56:16.347Z,3.40
2019-02-16T03:56:54.346Z,3.50
2019-02-16T03:57:32.332Z,3.50
2019-02-16T03:58:09.897Z,3.50
2019-02-16T03:58:47.865Z,3.50
2019-02-16T03:59:25.632Z,3.50
2019-02-16T04:00:04.111Z,3.50
2019-02-16T04:00:41.257Z,3.60
2019-02-16T04:01:18.963Z,3.60
2019-02-16T04:01:57.796Z,3.60
2019-02-16T04:02:35.459Z,3.60
2019-02-16T04:03:12.901Z,3.60
2019-02-16T04:03:50.280Z,3.60
2019-02-16T04:04:28.013Z,3.60
2019-02-16T04:05:05.348Z,3.60
2019-02-16T04:05:43.134Z,3.50
2019-02-16T04:06:21.325Z,3.50
2019-02-16T04:07:03.512Z,3.50
2019-02-16T04:07:40.992Z,3.50
2019-02-16T04:08:18.546Z,3.50
2019-02-16T04:08:57.734Z,3.50
2019-02-16T04:09:35.469Z,3.50
2019-02-16T04:10:13.157Z,3.50
2019-02-16T04:10:50.858Z,3.50
2019-02-16T04:11:28.675Z,3.40
2019-02-16T04:12:06.006Z,3.40
2019-02-16T04:12:43.681Z,3.40
2019-02-16T04:13:21.033Z,3.40
2019-02-16T04:13:58.623Z,3.40
2019-02-16T04:14:35.913Z,3.40
2019-02-16T04:15:13.410Z,3.40
2019-02-16T04:15:51.067Z,3.40
2019-02-16T04:16:28.798Z,3.30
2019-02-16T04:17:08.288Z,3.40
2019-02-16T04:17:46.294Z,3.30
2019-02-16T04:18:23.965Z,3.30
2019-02-16T04:19:01.725Z,3.40
2019-02-16T04:19:39.535Z,3.30
2019-02-16T04:20:17.500Z,3.30
2019-02-16T04:20:55.391Z,3.30
2019-02-16T04:21:33.508Z,3.30
2019-02-16T04:22:11.447Z,3.30
2019-02-16T04:22:48.919Z,3.30
2019-02-16T04:23:26.978Z,3.30
2019-02-16T04:24:04.594Z,3.30
2019-02-16T04:24:41.972Z,3.30
2019-02-16T04:25:19.866Z,3.20
2019-02-16T04:25:58.203Z,3.20
2019-02-16T04:26:54.434Z,3.20
2019-02-16T04:27:32.159Z,3.20
2019-02-16T04:28:09.813Z,3.20
2019-02-16T04:28:46.844Z,3.20
2019-02-16T04:29:24.552Z,3.20
2019-02-16T04:30:02.370Z,3.20
2019-02-16T04:30:39.470Z,3.20
2019-02-16T04:31:17.497Z,3.10
2019-02-16T04:31:55.109Z,3.10
2019-02-16T04:32:32.826Z,3.10
2019-02-16T04:33:11.109Z,3.10
2019-02-16T04:33:49.027Z,3.10
2019-02-16T04:34:26.371Z,3.10
2019-02-16T04:35:04.556Z,3.10
2019-02-16T04:35:41.946Z,3.10
2019-02-16T04:36:19.900Z,3.10
2019-02-16T04:36:57.670Z,3.10
2019-02-16T04:37:35.021Z,3.10
2019-02-16T04:38:12.842Z,3.10
2019-02-16T04:38:50.212Z,3.10
2019-02-16T04:39:27.685Z,3.10
2019-02-16T04:40:05.485Z,3.00
2019-02-16T04:40:42.898Z,3.00
2019-02-16T04:41:20.335Z,3.00
2019-02-16T04:41:57.733Z,3.00
2019-02-16T04:42:34.629Z,3.00
2019-02-16T04:43:11.956Z,3.00
2019-02-16T04:43:49.637Z,3.00
2019-02-16T04:44:27.427Z,3.00
2019-02-16T04:45:05.130Z,2.90
2019-02-16T04:45:42.699Z,2.90
2019-02-16T04:46:20.006Z,2.90
2019-02-16T04:46:57.435Z,2.90
2019-02-16T04:47:34.818Z,2.90
2019-02-16T04:48:12.291Z,2.90
2019-02-16T04:48:50.065Z,2.90
2019-02-16T04:49:27.746Z,2.90
2019-02-16T04:50:05.958Z,2.90
2019-02-16T04:50:43.437Z,2.90
2019-02-16T04:51:20.607Z,2.90
2019-02-16T04:51:57.748Z,2.90
2019-02-16T04:52:35.365Z,2.90
2019-02-16T04:53:13.062Z,2.90
2019-02-16T04:53:50.107Z,3.00
2019-02-16T04:54:26.755Z,3.00
2019-02-16T04:55:04.666Z,3.00
2019-02-16T04:55:42.140Z,3.00
2019-02-16T04:56:20.243Z,3.00
2019-02-16T04:56:58.226Z,3.00
2019-02-16T04:57:35.607Z,3.00
2019-02-16T04:58:13.279Z,3.00
2019-02-16T04:58:50.659Z,3.00
2019-02-16T04:59:28.440Z,3.00
2019-02-16T05:00:06.688Z,3.00
2019-02-16T05:00:43.807Z,3.00
2019-02-16T05:01:21.524Z,3.00
2019-02-16T05:01:59.014Z,3.00
2019-02-16T05:02:36.460Z,3.00
2019-02-16T05:03:14.240Z,3.00
2019-02-16T05:03:51.413Z,3.00
2019-02-16T05:04:29.399Z,3.00
2019-02-16T05:05:06.898Z,3.00
2019-02-16T05:05:44.459Z,3.00
2019-02-16T05:06:21.861Z,3.00
2019-02-16T05:06:59.821Z,3.00
2019-02-16T05:07:36.785Z,3.00
2019-02-16T05:08:13.971Z,3.10
2019-02-16T05:08:51.379Z,3.00
2019-02-16T05:09:29.832Z,3.00
2019-02-16T05:10:07.423Z,3.00
2019-02-16T05:10:48.079Z,3.00
2019-02-16T05:11:25.769Z,3.00
2019-02-16T05:12:03.543Z,3.00
2019-02-16T05:12:40.828Z,3.00
2019-02-16T05:13:18.845Z,3.00
2019-02-16T05:13:56.631Z,3.00
2019-02-16T05:14:34.648Z,3.00
2019-02-16T05:15:11.961Z,3.00
2019-02-16T05:15:50.965Z,3.00
2019-02-16T05:16:28.557Z,3.00
2019-02-16T05:17:06.239Z,3.00
2019-02-16T05:17:45.253Z,3.00
2019-02-16T05:18:22.735Z,3.00
2019-02-16T05:19:00.518Z,3.00
2019-02-16T05:19:40.867Z,3.00
2019-02-16T05:20:18.595Z,3.00
2019-02-16T05:20:55.970Z,3.00
2019-02-16T05:21:33.323Z,3.00
2019-02-16T05:22:10.887Z,3.00
2019-02-16T05:22:48.282Z,3.00
2019-02-16T05:23:27.427Z,3.00
2019-02-16T05:24:04.798Z,3.00
2019-02-16T05:24:42.709Z,3.00
2019-02-16T05:25:19.857Z,3.00
2019-02-16T05:25:57.491Z,3.00
2019-02-16T05:26:36.276Z,3.00
2019-02-16T05:27:13.789Z,3.00
2019-02-16T05:27:51.888Z,3.00
2019-02-16T05:28:34.377Z,3.00
2019-02-16T05:29:13.549Z,3.00
2019-02-16T05:29:51.615Z,3.00
2019-02-16T05:30:29.570Z,3.00
2019-02-16T05:31:26.613Z,3.00
2019-02-16T05:32:03.923Z,3.00
2019-02-16T05:32:41.299Z,3.00
2019-02-16T05:33:18.831Z,2.90
2019-02-16T05:33:56.773Z,2.90
2019-02-16T05:34:35.031Z,2.90
2019-02-16T05:35:12.527Z,2.90
2019-02-16T05:35:50.325Z,2.90
2019-02-16T05:36:30.557Z,2.90
2019-02-16T05:37:07.951Z,2.90
2019-02-16T05:37:44.983Z,2.90
2019-02-16T05:38:22.396Z,2.90
2019-02-16T05:38:59.775Z,2.90
2019-02-16T05:39:37.121Z,3.00
2019-02-16T05:40:14.602Z,3.00
2019-02-16T05:40:52.083Z,3.00
2019-02-16T05:41:29.548Z,2.90
2019-02-16T05:42:07.046Z,2.90
2019-02-16T05:42:45.145Z,2.90
2019-02-16T05:43:22.802Z,2.90
2019-02-16T05:44:00.492Z,2.90
2019-02-16T05:44:38.339Z,2.90
2019-02-16T05:45:16.068Z,2.90
2019-02-16T05:45:55.128Z,2.90
2019-02-16T05:46:32.965Z,2.90
2019-02-16T05:47:10.445Z,2.80
2019-02-16T05:47:48.096Z,2.80
2019-02-16T05:48:25.729Z,2.80
2019-02-16T05:49:02.792Z,2.80
2019-02-16T05:49:40.499Z,2.80
2019-02-16T05:50:18.040Z,2.80
2019-02-16T05:50:55.422Z,2.80
2019-02-16T05:51:32.698Z,2.80
2019-02-16T05:52:10.067Z,2.80
2019-02-16T05:52:54.485Z,2.80
2019-02-16T05:53:26.662Z,2.80
2019-02-16T05:54:04.137Z,2.80
2019-02-16T05:54:41.743Z,2.80
2019-02-16T05:55:19.312Z,2.80
2019-02-16T05:55:59.745Z,2.80
2019-02-16T05:56:37.468Z,2.80
2019-02-16T05:57:15.017Z,2.80
2019-02-16T05:57:53.145Z,2.80
2019-02-16T05:58:30.876Z,2.80
2019-02-16T05:59:08.479Z,2.80
2019-02-16T05:59:45.854Z,2.80
2019-02-16T06:00:26.712Z,2.80
2019-02-16T06:01:04.413Z,2.80
2019-02-16T06:01:42.380Z,2.80
2019-02-16T06:02:19.220Z,2.80
2019-02-16T06:02:56.639Z,2.80
2019-02-16T06:03:33.728Z,2.80
2019-02-16T06:04:11.071Z,2.80
2019-02-16T06:04:49.279Z,2.80
2019-02-16T06:05:26.967Z,2.80
2019-02-16T06:06:05.043Z,2.80
2019-02-16T06:06:42.349Z,2.80
2019-02-16T06:07:19.836Z,2.80
2019-02-16T06:07:57.355Z,2.80
2019-02-16T06:08:38.373Z,2.80
2019-02-16T06:09:15.437Z,2.80
2019-02-16T06:09:53.357Z,2.80
2019-02-16T06:10:31.298Z,2.80
2019-02-16T06:11:09.072Z,2.90
2019-02-16T06:11:46.993Z,2.90
2019-02-16T06:12:26.748Z,2.90
2019-02-16T06:13:03.983Z,2.90
2019-02-16T06:13:48.082Z,2.90
2019-02-16T06:14:26.101Z,2.90
2019-02-16T06:15:03.578Z,2.90
2019-02-16T06:15:40.946Z,2.90
2019-02-16T06:16:18.741Z,2.90
2019-02-16T06:16:56.733Z,2.90
2019-02-16T06:18:18.571Z,2.90
2019-02-16T06:18:56.257Z,2.90
2019-02-16T06:19:34.213Z,2.90
2019-02-16T06:20:11.827Z,2.90
2019-02-16T06:20:49.213Z,2.90
2019-02-16T06:21:26.871Z,2.90
2019-02-16T06:22:04.563Z,2.90
2019-02-16T06:22:42.504Z,2.90
2019-02-16T06:23:19.834Z,2.90
2019-02-16T06:23:59.531Z,2.90
2019-02-16T06:24:37.136Z,2.90
2019-02-16T06:25:17.220Z,2.90
2019-02-16T06:25:56.577Z,2.90
2019-02-16T06:26:33.986Z,2.90
2019-02-16T06:27:11.964Z,2.90
2019-02-16T06:27:49.686Z,2.90
2019-02-16T06:28:27.411Z,2.90
2019-02-16T06:29:05.300Z,3.00
2019-02-16T06:29:42.572Z,3.00
2019-02-16T06:30:20.258Z,3.00
2019-02-16T06:30:57.637Z,3.00
2019-02-16T06:31:35.046Z,3.00
2019-02-16T06:32:12.604Z,3.00
2019-02-16T06:32:50.392Z,3.00
2019-02-16T06:33:28.123Z,3.00
2019-02-16T06:34:05.551Z,3.00
2019-02-16T06:34:43.335Z,3.00
2019-02-16T06:35:31.159Z,3.00
2019-02-16T06:36:30.553Z,3.00
2019-02-16T06:37:22.470Z,3.00
2019-02-16T06:37:59.992Z,3.00
2019-02-16T06:38:38.017Z,3.00
2019-02-16T06:39:15.728Z,3.00
2019-02-16T06:40:11.885Z,3.10
2019-02-16T06:40:49.528Z,3.10
2019-02-16T06:41:26.888Z,3.10
2019-02-16T06:42:04.674Z,3.10
2019-02-16T06:42:42.088Z,3.10
2019-02-16T06:43:19.774Z,3.10
2019-02-16T06:43:57.431Z,3.10
2019-02-16T06:44:36.572Z,3.10
2019-02-16T06:45:13.643Z,3.10
2019-02-16T06:45:53.272Z,3.10
2019-02-16T06:46:30.924Z,3.10
2019-02-16T06:47:08.404Z,3.10
2019-02-16T06:47:45.873Z,3.10
2019-02-16T06:48:23.405Z,3.10
2019-02-16T06:49:00.520Z,3.10
2019-02-16T06:49:38.140Z,3.10
2019-02-16T06:50:16.059Z,3.10
2019-02-16T06:50:55.543Z,3.10
2019-02-16T06:51:33.444Z,3.10
2019-02-16T06:52:10.896Z,3.10
2019-02-16T06:52:48.587Z,3.10
2019-02-16T06:53:26.057Z,3.20
2019-02-16T06:54:03.125Z,3.20
2019-02-16T06:54:40.711Z,3.20
2019-02-16T06:55:18.318Z,3.20
2019-02-16T06:56:06.008Z,3.20
2019-02-16T06:57:20.967Z,3.20
2019-02-16T06:57:58.679Z,3.20
2019-02-16T06:58:36.669Z,3.30
2019-02-16T06:59:21.130Z,3.30
2019-02-16T06:59:59.144Z,3.30
2019-02-16T07:00:36.550Z,3.40
2019-02-16T07:01:14.259Z,3.40
2019-02-16T07:01:52.258Z,3.40
2019-02-16T07:02:31.010Z,3.40
2019-02-16T07:03:08.828Z,3.40
2019-02-16T07:03:53.980Z,3.40
2019-02-16T07:04:33.914Z,3.50
2019-02-16T07:05:13.650Z,3.50
2019-02-16T07:05:59.683Z,3.50
2019-02-16T07:06:38.180Z,3.50
2019-02-16T07:07:15.912Z,3.50
2019-02-16T07:07:55.280Z,3.60
2019-02-16T07:08:34.810Z,3.60
2019-02-16T07:09:12.544Z,3.60
2019-02-16T07:09:49.730Z,3.60
2019-02-16T07:10:27.197Z,3.70
2019-02-16T07:11:05.218Z,3.70
2019-02-16T07:11:42.360Z,3.70
2019-02-16T07:12:22.602Z,3.70
2019-02-16T07:13:00.334Z,3.80
2019-02-16T07:13:38.316Z,3.80
2019-02-16T07:14:17.967Z,3.80
2019-02-16T07:14:55.739Z,3.90
2019-02-16T07:15:32.848Z,3.90
2019-02-16T07:16:27.955Z,3.90
2019-02-16T07:17:19.788Z,3.90
2019-02-16T07:18:23.346Z,3.90
2019-02-16T07:19:21.957Z,4.00
2019-02-16T07:20:00.375Z,4.00
2019-02-16T07:20:37.856Z,4.00
2019-02-16T07:21:15.186Z,4.00
2019-02-16T07:21:55.843Z,4.10
2019-02-16T07:22:33.580Z,4.10
2019-02-16T07:23:11.004Z,4.10
2019-02-16T07:23:48.109Z,4.10
2019-02-16T07:24:25.703Z,4.20
2019-02-16T07:25:03.854Z,4.20
2019-02-16T07:25:41.854Z,4.20
2019-02-16T07:26:21.341Z,4.20
2019-02-16T07:26:58.339Z,4.30
2019-02-16T07:27:35.912Z,4.30
2019-02-16T07:28:12.980Z,4.30
2019-02-16T07:28:50.392Z,4.30
2019-02-16T07:29:28.147Z,4.40
2019-02-16T07:30:07.174Z,4.40
2019-02-16T07:30:44.769Z,4.40
2019-02-16T07:31:22.324Z,4.40
2019-02-16T07:31:59.823Z,4.40
2019-02-16T07:32:37.534Z,4.50
2019-02-16T07:33:15.242Z,4.50
2019-02-16T07:33:53.028Z,4.50
2019-02-16T07:34:30.977Z,4.50
2019-02-16T07:35:09.396Z,4.60
2019-02-16T07:35:47.158Z,4.60
2019-02-16T07:36:25.184Z,4.60
2019-02-16T07:37:03.225Z,4.60
2019-02-16T07:37:40.601Z,4.70
2019-02-16T07:38:18.410Z,4.70
2019-02-16T07:38:56.059Z,4.70
2019-02-16T07:39:33.488Z,4.70
2019-02-16T07:40:10.216Z,4.80
2019-02-16T07:40:48.135Z,4.80
2019-02-16T07:41:26.090Z,4.80
2019-02-16T07:42:04.070Z,4.80
2019-02-16T07:42:52.403Z,4.80
2019-02-16T07:43:47.800Z,4.90
2019-02-16T07:44:39.888Z,4.90
2019-02-16T07:45:34.098Z,4.90
2019-02-16T07:46:36.500Z,4.90
2019-02-16T07:47:29.712Z,5.00
2019-02-16T07:48:15.577Z,5.00
2019-02-16T07:49:02.786Z,5.10
2019-02-16T07:49:58.004Z,5.10
2019-02-16T07:50:52.568Z,5.10
2019-02-16T07:51:48.957Z,5.20
2019-02-16T07:52:45.074Z,5.20
2019-02-16T07:53:40.722Z,5.20
2019-02-16T07:54:24.114Z,5.30
2019-02-16T07:55:13.788Z,5.30
2019-02-16T07:55:58.937Z,5.40
2019-02-16T07:56:44.423Z,5.40
2019-02-16T07:57:39.618Z,5.50
2019-02-16T07:58:37.186Z,5.50
2019-02-16T07:59:26.370Z,5.50
2019-02-16T08:00:25.490Z,5.60
2019-02-16T08:01:19.446Z,5.60
2019-02-16T08:02:08.094Z,5.70
2019-02-16T08:03:16.733Z,5.70
2019-02-16T08:04:22.287Z,5.70
2019-02-16T08:05:22.262Z,5.80
2019-02-16T08:06:17.140Z,5.90
2019-02-16T08:07:38.963Z,5.90
2019-02-16T08:08:41.647Z,5.90
2019-02-16T08:09:59.108Z,6.00
2019-02-16T08:10:45.118Z,6.00
2019-02-16T08:11:29.027Z,6.10
2019-02-16T08:12:13.610Z,6.10
2019-02-16T08:13:13.304Z,6.10
2019-02-16T08:14:04.770Z,6.10
2019-02-16T08:15:04.412Z,6.20
2019-02-16T08:15:49.040Z,6.20
2019-02-16T08:16:43.859Z,6.20
2019-02-16T08:17:48.044Z,6.30
2019-02-16T08:18:43.353Z,6.30
2019-02-16T08:19:45.899Z,6.40
2019-02-16T08:20:40.472Z,6.40
2019-02-16T08:21:36.079Z,6.50
2019-02-16T08:22:32.720Z,6.50
2019-02-16T08:23:40.195Z,6.50
2019-02-16T08:24:20.348Z,6.60
2019-02-16T08:25:17.549Z,6.60
2019-02-16T08:26:03.754Z,6.70
2019-02-16T08:26:59.156Z,6.70
2019-02-16T08:27:54.458Z,6.70
2019-02-16T08:28:37.169Z,6.80
2019-02-16T08:29:30.529Z,6.80
2019-02-16T08:30:33.372Z,6.80
2019-02-16T08:31:16.801Z,6.90
2019-02-16T08:32:01.029Z,6.90
2019-02-16T08:33:03.703Z,6.90
2019-02-16T08:33:53.479Z,7.00
2019-02-16T08:34:36.904Z,7.00
2019-02-16T08:35:31.985Z,7.00
2019-02-16T08:36:28.712Z,7.00
2019-02-16T08:37:19.732Z,7.10
2019-02-16T08:38:14.932Z,7.20
2019-02-16T08:39:12.051Z,7.20
2019-02-16T08:39:58.794Z,7.20
2019-02-16T08:40:46.320Z,7.30
2019-02-16T08:41:42.536Z,7.30
2019-02-16T08:42:38.748Z,7.30
2019-02-16T08:43:35.265Z,7.40
2019-02-16T08:44:44.534Z,7.40
2019-02-16T08:45:40.448Z,7.40
2019-02-16T08:46:26.040Z,7.40
2019-02-16T08:47:15.268Z,7.40
2019-02-16T08:48:01.671Z,7.50
2019-02-16T08:48:51.846Z,7.50
2019-02-16T08:49:57.762Z,7.50
2019-02-16T08:50:46.680Z,7.50
2019-02-16T08:51:48.991Z,7.60
2019-02-16T08:52:57.713Z,7.60
2019-02-16T08:53:49.624Z,7.60
2019-02-16T08:54:33.880Z,7.70
2019-02-16T08:55:29.600Z,7.70
2019-02-16T08:56:14.615Z,7.70
2019-02-16T08:57:16.332Z,7.70
2019-02-16T08:58:01.534Z,7.80